createdAt,value
2023-01-26T00:00:54.794Z,67.77
2023-01-26T00:03:25.720Z,74.63
2023-01-26T00:05:55.090Z,68.20
2023-01-26T00:08:24.412Z,68.80
2023-01-26T00:10:55.161Z,69.40
2023-01-26T00:13:24.607Z,64.77
2023-01-26T00:15:55.544Z,68.67
2023-01-26T00:18:24.906Z,63.00
2023-01-26T00:20:58.692Z,67.90
2023-01-26T00:23:29.382Z,69.60
2023-01-26T00:25:58.810Z,68.10
2023-01-26T00:28:29.026Z,72.23
2023-01-26T00:31:06.894Z,69.07
2023-01-26T00:33:36.238Z,74.07
2023-01-26T00:36:05.525Z,69.73
2023-01-26T00:38:34.614Z,64.97
2023-01-26T00:41:03.986Z,71.77
2023-01-26T00:43:33.265Z,77.37
2023-01-26T00:46:02.384Z,67.13
2023-01-26T00:48:32.833Z,70.47
2023-01-26T00:51:01.950Z,73.27
2023-01-26T00:53:31.094Z,70.13
2023-01-26T00:56:00.199Z,69.97
2023-01-26T00:58:29.305Z,72.87
2023-01-26T01:00:58.454Z,74.27
2023-01-26T01:03:27.529Z,71.23
2023-01-26T01:05:58.050Z,75.87
2023-01-26T01:08:27.088Z,70.70
2023-01-26T01:11:05.925Z,68.13
2023-01-26T01:13:35.062Z,68.13
2023-01-26T01:16:08.590Z,73.20
2023-01-26T01:18:38.443Z,73.30
2023-01-26T01:21:15.261Z,80.80
2023-01-26T01:23:45.232Z,76.27
2023-01-26T01:26:15.159Z,74.70
2023-01-26T01:28:45.140Z,77.50
2023-01-26T01:31:16.073Z,76.43
2023-01-26T01:33:45.399Z,73.03
2023-01-26T01:36:18.073Z,75.77
2023-01-26T01:38:49.678Z,71.07
2023-01-26T01:41:21.208Z,77.70
2023-01-26T01:43:50.415Z,69.90
2023-01-26T01:46:28.382Z,74.30
2023-01-26T01:49:02.688Z,70.63
2023-01-26T01:51:39.024Z,66.20
2023-01-26T01:54:12.475Z,70.93
2023-01-26T01:56:46.685Z,77.83
2023-01-26T01:59:16.309Z,75.50
2023-01-26T02:01:45.418Z,67.03
2023-01-26T02:04:15.404Z,79.30
2023-01-26T02:06:50.199Z,74.27
2023-01-26T02:09:39.572Z,73.10
2023-01-26T02:12:07.162Z,76.60
2023-01-26T02:14:36.804Z,74.10
2023-01-26T02:22:13.547Z,77.50
2023-01-26T02:24:43.156Z,74.47
2023-01-26T02:27:13.798Z,76.00
2023-01-26T02:32:24.271Z,83.00
2023-01-26T02:34:58.492Z,76.47
2023-01-26T02:37:27.709Z,78.03
2023-01-26T02:40:01.278Z,83.27
2023-01-26T02:42:44.744Z,77.13
2023-01-26T02:45:17.041Z,80.33
2023-01-26T02:47:47.529Z,74.73
2023-01-26T02:50:15.926Z,76.00
2023-01-26T02:52:45.109Z,79.83
2023-01-26T02:55:29.936Z,77.87
2023-01-26T02:58:00.863Z,84.50
2023-01-26T03:00:32.283Z,85.53
2023-01-26T03:03:05.290Z,82.73
2023-01-26T03:05:34.169Z,78.83
2023-01-26T03:08:06.358Z,82.03
2023-01-26T03:10:36.313Z,81.77
2023-01-26T03:13:05.289Z,81.30
2023-01-26T03:15:48.287Z,75.77
2023-01-26T03:18:37.845Z,82.13
2023-01-26T03:21:26.217Z,84.37
2023-01-26T03:24:12.590Z,80.60
2023-01-26T03:26:59.569Z,75.40
2023-01-26T03:29:29.229Z,79.67
2023-01-26T03:31:59.590Z,79.10
2023-01-26T03:34:31.116Z,87.43
2023-01-26T03:37:00.096Z,78.90
2023-01-26T03:39:46.304Z,84.07
2023-01-26T03:42:32.771Z,86.33
2023-01-26T03:45:18.868Z,76.97
2023-01-26T03:48:05.033Z,84.77
2023-01-26T03:50:52.680Z,91.07
2023-01-26T03:53:40.584Z,77.57
2023-01-26T03:56:22.011Z,86.73
2023-01-26T03:58:53.270Z,85.57
2023-01-26T04:01:27.927Z,88.63
2023-01-26T04:04:15.750Z,94.03
2023-01-26T04:07:05.415Z,88.17
2023-01-26T04:09:34.788Z,91.83
2023-01-26T04:12:03.943Z,91.97
2023-01-26T04:14:50.868Z,89.07
2023-01-26T04:17:37.747Z,89.70
2023-01-26T04:20:25.184Z,87.20
2023-01-26T04:22:55.609Z,94.00
2023-01-26T04:25:25.008Z,97.27
2023-01-26T04:27:53.919Z,89.17
2023-01-26T04:30:23.474Z,98.60
2023-01-26T04:32:53.649Z,93.63
2023-01-26T04:35:22.667Z,91.70
2023-01-26T04:37:51.569Z,100.33
2023-01-26T04:40:22.370Z,98.50
2023-01-26T04:42:51.286Z,96.70
2023-01-26T04:45:20.281Z,93.07
2023-01-26T04:47:49.223Z,98.97
2023-01-26T04:50:18.614Z,98.97
2023-01-26T04:52:47.540Z,100.90
2023-01-26T04:55:16.659Z,99.53
2023-01-26T04:57:47.121Z,100.33
2023-01-26T05:00:16.669Z,92.73
2023-01-26T05:02:45.599Z,97.00
2023-01-26T05:05:14.619Z,95.77
2023-01-26T05:07:43.832Z,97.93
2023-01-26T05:10:15.694Z,95.93
2023-01-26T05:12:46.433Z,98.80
2023-01-26T05:15:15.363Z,92.07
2023-01-26T05:17:47.129Z,93.80
2023-01-26T05:20:16.117Z,93.47
2023-01-26T05:22:45.188Z,97.73
2023-01-26T05:25:14.098Z,101.87
2023-01-26T05:27:43.071Z,93.60
2023-01-26T05:30:15.892Z,89.17
2023-01-26T05:32:45.420Z,97.23
2023-01-26T05:35:14.435Z,92.47
2023-01-26T05:37:43.819Z,87.97
2023-01-26T05:40:14.256Z,92.67
2023-01-26T05:42:44.878Z,98.37
2023-01-26T05:45:15.370Z,89.93
2023-01-26T05:47:45.755Z,90.77
2023-01-26T05:50:15.236Z,92.03
2023-01-26T05:52:46.767Z,88.27
2023-01-26T05:55:15.891Z,91.10
2023-01-26T05:57:44.851Z,91.83
2023-01-26T06:00:16.394Z,97.73
2023-01-26T06:02:47.538Z,87.23
2023-01-26T06:05:17.578Z,91.37
2023-01-26T06:07:46.643Z,89.70
2023-01-26T06:10:15.664Z,86.23
2023-01-26T06:12:44.661Z,87.83
2023-01-26T06:15:15.260Z,90.80
2023-01-26T06:17:44.428Z,119.27
2023-01-26T06:20:15.045Z,90.37
2023-01-26T06:22:43.991Z,90.30
2023-01-26T06:25:12.924Z,95.23
2023-01-26T06:27:42.724Z,88.63
2023-01-26T06:30:13.258Z,91.33
2023-01-26T06:32:43.847Z,93.63
2023-01-26T06:35:12.798Z,83.03
2023-01-26T06:37:41.758Z,87.17
2023-01-26T06:40:12.574Z,80.90
2023-01-26T06:42:41.845Z,82.70
2023-01-26T06:45:12.011Z,87.23
2023-01-26T06:47:45.807Z,85.63
2023-01-26T06:50:17.317Z,88.97
2023-01-26T06:52:49.059Z,95.40
2023-01-26T06:55:22.156Z,84.80
2023-01-26T06:57:51.157Z,84.93
2023-01-26T07:00:21.078Z,94.97
2023-01-26T07:02:50.086Z,77.07
2023-01-26T07:05:20.678Z,86.23
2023-01-26T07:07:49.708Z,88.47
2023-01-26T07:10:18.830Z,87.23
2023-01-26T07:12:48.176Z,81.70
2023-01-26T07:15:17.465Z,86.63
2023-01-26T07:17:46.431Z,88.27
2023-01-26T07:20:15.899Z,86.27
2023-01-26T07:22:46.358Z,85.97
2023-01-26T07:25:15.545Z,88.33
2023-01-26T07:27:44.702Z,78.43
2023-01-26T07:30:15.821Z,88.60
2023-01-26T07:32:45.446Z,90.50
2023-01-26T07:35:14.484Z,89.40
2023-01-26T07:37:43.459Z,84.10
2023-01-26T07:40:14.950Z,90.77
2023-01-26T07:42:43.835Z,81.20
2023-01-26T07:45:13.654Z,88.90
2023-01-26T07:47:42.608Z,81.33
2023-01-26T07:50:14.204Z,79.80
2023-01-26T07:52:43.962Z,82.07
2023-01-26T07:55:14.761Z,85.10
2023-01-26T07:57:43.892Z,83.13
2023-01-26T08:00:14.212Z,87.97
2023-01-26T08:02:43.165Z,88.90
2023-01-26T08:05:12.310Z,83.33
2023-01-26T08:07:41.405Z,85.57
2023-01-26T08:10:12.971Z,87.67
2023-01-26T08:12:43.569Z,83.53
2023-01-26T08:15:13.491Z,80.77
2023-01-26T08:17:47.544Z,78.10
2023-01-26T08:20:16.779Z,79.73
2023-01-26T08:22:45.819Z,114.40
2023-01-26T08:25:14.808Z,85.50
2023-01-26T08:27:45.214Z,80.57
2023-01-26T08:30:15.381Z,75.60
2023-01-26T08:32:44.627Z,191.70
2023-01-26T08:35:13.619Z,98.90
2023-01-26T08:37:42.635Z,83.67
2023-01-26T08:40:12.923Z,84.20
2023-01-26T08:42:42.099Z,126.33
2023-01-26T08:45:13.341Z,136.13
2023-01-26T08:47:42.335Z,204.63
2023-01-26T08:50:12.629Z,78.57
2023-01-26T08:52:41.863Z,92.20
2023-01-26T08:55:11.653Z,87.40
2023-01-26T08:57:40.703Z,84.30
2023-01-26T09:00:13.138Z,82.87
2023-01-26T09:02:42.595Z,73.00
2023-01-26T09:05:12.175Z,79.43
2023-01-26T09:07:41.252Z,77.77
2023-01-26T09:10:11.938Z,84.27
2023-01-26T09:12:41.321Z,67.20
2023-01-26T09:15:12.728Z,71.97
2023-01-26T09:17:42.902Z,71.13
2023-01-26T09:20:13.341Z,80.57
2023-01-26T09:22:43.005Z,71.03
2023-01-26T09:25:12.284Z,71.63
2023-01-26T09:27:41.780Z,77.63
2023-01-26T09:30:13.534Z,90.03
2023-01-26T09:32:42.595Z,75.80
2023-01-26T09:35:14.500Z,74.03
2023-01-26T09:37:45.709Z,72.00
2023-01-26T09:40:20.567Z,84.73
2023-01-26T09:43:06.859Z,75.73
2023-01-26T09:45:48.127Z,72.37
2023-01-26T09:48:27.564Z,68.27
2023-01-26T09:51:03.817Z,70.90
2023-01-26T09:53:43.214Z,76.33
2023-01-26T09:56:17.168Z,72.37
2023-01-26T09:58:49.819Z,67.33
2023-01-26T10:01:26.133Z,64.63
2023-01-26T10:04:03.912Z,102.43
2023-01-26T10:06:34.198Z,73.20
2023-01-26T10:09:08.689Z,75.00
2023-01-26T10:11:42.590Z,64.60
2023-01-26T10:14:17.319Z,62.50
2023-01-26T10:16:50.385Z,63.27
2023-01-26T10:19:27.155Z,67.03
2023-01-26T10:21:59.099Z,71.67
2023-01-26T10:24:28.716Z,69.93
2023-01-26T10:26:59.823Z,71.90
2023-01-26T10:29:28.829Z,72.10
2023-01-26T10:31:59.289Z,78.20
2023-01-26T10:34:29.719Z,68.10
2023-01-26T10:37:13.673Z,69.13
2023-01-26T10:40:00.238Z,64.93
2023-01-26T10:42:31.621Z,70.67
2023-01-26T10:45:03.181Z,70.13
2023-01-26T10:47:33.666Z,71.43
2023-01-26T10:50:23.631Z,69.80
2023-01-26T10:53:01.042Z,68.47
2023-01-26T10:55:30.935Z,67.83
2023-01-26T10:58:00.152Z,64.07
2023-01-26T11:00:31.074Z,69.73
2023-01-26T11:03:08.136Z,69.27
2023-01-26T11:05:37.204Z,70.57
2023-01-26T11:08:27.685Z,76.80
2023-01-26T11:10:57.649Z,73.60
2023-01-26T11:13:26.597Z,68.70
2023-01-26T11:16:05.467Z,59.93
2023-01-26T11:18:45.702Z,68.77
2023-01-26T11:21:19.146Z,66.10
2023-01-26T11:23:54.653Z,63.13
2023-01-26T11:26:42.693Z,65.13
2023-01-26T11:29:37.995Z,61.17
2023-01-26T11:32:16.799Z,72.83
2023-01-26T11:34:57.187Z,66.70
2023-01-26T11:37:49.238Z,65.50
2023-01-26T11:40:27.904Z,69.63
2023-01-26T11:43:19.835Z,68.23
2023-01-26T11:46:05.737Z,57.57
2023-01-26T11:48:46.754Z,96.70
2023-01-26T11:51:27.305Z,67.33
2023-01-26T11:54:34.693Z,69.77
2023-01-26T11:57:09.583Z,75.87
2023-01-26T11:59:43.265Z,70.87
2023-01-26T12:02:27.800Z,83.03
2023-01-26T12:04:59.134Z,75.90
2023-01-26T12:07:35.036Z,84.87
2023-01-26T12:10:06.939Z,93.13
2023-01-26T12:12:40.268Z,77.70
2023-01-26T12:15:15.022Z,78.87
2023-01-26T12:17:51.963Z,73.37
2023-01-26T12:20:29.103Z,75.63
2023-01-26T12:23:05.126Z,77.23
2023-01-26T12:25:37.034Z,76.07
2023-01-26T12:28:21.489Z,78.37
2023-01-26T12:30:59.289Z,111.13
2023-01-26T12:33:28.433Z,84.43
2023-01-26T12:36:07.778Z,81.53
2023-01-26T12:38:46.675Z,83.33
2023-01-26T12:41:22.877Z,67.50
2023-01-26T12:44:00.666Z,73.47
2023-01-26T12:46:30.575Z,79.87
2023-01-26T12:49:04.209Z,75.67
2023-01-26T12:51:38.347Z,78.70
2023-01-26T12:54:16.148Z,67.83
2023-01-26T12:56:49.223Z,78.33
2023-01-26T12:59:46.515Z,77.93
2023-01-26T13:02:27.684Z,71.53
2023-01-26T13:04:58.471Z,79.07
2023-01-26T13:07:33.844Z,81.37
2023-01-26T13:10:24.696Z,71.80
2023-01-26T13:12:55.654Z,76.40
2023-01-26T13:15:26.860Z,78.30
2023-01-26T13:18:02.369Z,69.17
2023-01-26T13:20:47.773Z,74.37
2023-01-26T13:23:39.880Z,73.17
2023-01-26T13:26:43.241Z,69.73
2023-01-26T13:29:33.764Z,66.37
2023-01-26T13:32:19.129Z,70.50
2023-01-26T13:34:54.033Z,61.10
2023-01-26T13:37:29.778Z,65.03
2023-01-26T13:40:04.246Z,65.03
2023-01-26T13:42:39.937Z,64.83
2023-01-26T13:45:18.192Z,70.97
2023-01-26T13:47:50.391Z,66.50
2023-01-26T13:50:31.882Z,70.57
2023-01-26T13:53:01.343Z,72.13
2023-01-26T13:55:33.276Z,63.97
2023-01-26T13:58:17.090Z,63.63
2023-01-26T14:01:00.231Z,66.27
2023-01-26T14:03:30.505Z,62.43
2023-01-26T14:06:03.401Z,63.27
2023-01-26T14:08:34.970Z,66.13
2023-01-26T14:11:06.527Z,58.57
2023-01-26T14:13:38.819Z,65.10
2023-01-26T14:16:09.238Z,67.20
2023-01-26T14:18:38.160Z,64.37
2023-01-26T14:21:18.300Z,56.50
2023-01-26T14:23:47.195Z,65.00
2023-01-26T14:26:21.953Z,65.37
2023-01-26T14:28:52.942Z,70.57
2023-01-26T14:31:25.184Z,68.37
2023-01-26T14:33:57.922Z,68.57
2023-01-26T14:36:28.681Z,69.83
2023-01-26T14:39:01.321Z,67.17
2023-01-26T14:41:34.008Z,62.93
2023-01-26T14:44:06.244Z,67.53
2023-01-26T14:46:58.507Z,64.33
2023-01-26T14:49:42.975Z,66.80
2023-01-26T14:52:24.329Z,69.67
2023-01-26T14:54:54.902Z,62.93
2023-01-26T14:57:26.822Z,67.53
2023-01-26T14:59:59.489Z,69.13
2023-01-26T15:02:37.326Z,66.13
2023-01-26T15:05:13.291Z,65.63
2023-01-26T15:07:45.383Z,63.33
2023-01-26T15:10:37.181Z,70.90
2023-01-26T15:13:20.838Z,70.63
2023-01-26T15:16:04.678Z,65.83
2023-01-26T15:18:34.665Z,62.40
2023-01-26T15:21:14.164Z,74.53
2023-01-26T15:23:45.563Z,67.20
2023-01-26T15:26:17.409Z,74.27
2023-01-26T15:28:51.815Z,70.63
2023-01-26T15:31:26.869Z,67.53
2023-01-26T15:33:59.017Z,69.30
2023-01-26T15:36:33.733Z,73.10
2023-01-26T15:39:06.522Z,71.60
2023-01-26T15:41:35.450Z,68.10
2023-01-26T15:44:04.388Z,70.03
2023-01-26T15:46:35.219Z,71.73
2023-01-26T15:49:04.468Z,74.67
2023-01-26T15:51:33.410Z,71.70
2023-01-26T15:54:02.415Z,80.97
2023-01-26T15:56:31.370Z,71.97
2023-01-26T15:59:00.475Z,78.07
2023-01-26T16:01:35.203Z,73.17
2023-01-26T16:04:04.716Z,79.27
2023-01-26T16:06:34.993Z,78.13
2023-01-26T16:09:04.015Z,78.80
2023-01-26T16:11:36.735Z,82.20
2023-01-26T16:14:05.892Z,77.93
2023-01-26T16:16:37.047Z,82.27
2023-01-26T16:19:05.997Z,82.70
2023-01-26T16:21:38.772Z,78.17
2023-01-26T16:24:11.366Z,75.23
2023-01-26T16:26:40.696Z,78.90
2023-01-26T16:29:09.717Z,84.10
2023-01-26T16:31:41.808Z,80.90
2023-01-26T16:34:11.850Z,87.40
2023-01-26T16:36:41.077Z,90.00
2023-01-26T16:39:09.985Z,80.23
2023-01-26T16:41:39.002Z,85.13
2023-01-26T16:44:14.472Z,85.70
2023-01-26T16:46:45.907Z,81.73
2023-01-26T16:49:16.036Z,90.03
2023-01-26T16:51:45.748Z,84.23
2023-01-26T16:54:15.480Z,81.60
2023-01-26T16:56:45.540Z,93.77
2023-01-26T16:59:15.007Z,87.70
2023-01-26T17:01:47.577Z,80.33
2023-01-26T17:04:17.531Z,88.57
2023-01-26T17:06:46.730Z,79.97
2023-01-26T17:09:16.569Z,92.87
2023-01-26T17:11:45.703Z,89.37
2023-01-26T17:14:14.951Z,89.30
2023-01-26T17:16:45.382Z,94.60
2023-01-26T17:19:16.068Z,91.87
2023-01-26T17:21:46.341Z,84.83
2023-01-26T17:24:15.445Z,92.93
2023-01-26T17:26:49.136Z,91.73
2023-01-26T17:29:19.182Z,88.83
2023-01-26T17:31:50.009Z,84.87
2023-01-26T17:34:21.468Z,97.47
2023-01-26T17:36:51.330Z,99.53
2023-01-26T17:39:20.352Z,98.60
2023-01-26T17:41:49.388Z,99.67
2023-01-26T17:44:18.926Z,98.10
2023-01-26T17:46:50.519Z,91.83
2023-01-26T17:49:21.700Z,90.43
2023-01-26T17:51:51.003Z,101.87
2023-01-26T17:54:20.117Z,95.50
2023-01-26T17:56:49.941Z,96.27
2023-01-26T17:59:20.011Z,96.47
2023-01-26T18:01:52.433Z,101.73
2023-01-26T18:04:22.626Z,93.00
2023-01-26T18:06:51.587Z,99.13
2023-01-26T18:09:22.240Z,93.73
2023-01-26T18:11:52.391Z,92.30
2023-01-26T18:14:22.261Z,93.73
2023-01-26T18:16:57.985Z,87.40
2023-01-26T18:19:29.619Z,89.37
2023-01-26T18:22:00.169Z,100.57
2023-01-26T18:24:29.640Z,92.17
2023-01-26T18:26:59.003Z,101.53
2023-01-26T18:29:28.765Z,95.57
2023-01-26T18:31:59.798Z,106.93
2023-01-26T18:34:30.523Z,104.03
2023-01-26T18:37:00.048Z,114.00
2023-01-26T18:39:31.444Z,109.47
2023-01-26T18:42:01.007Z,109.67
2023-01-26T18:44:30.199Z,104.20
2023-01-26T18:47:08.397Z,98.70
2023-01-26T18:49:39.925Z,92.47
2023-01-26T18:52:11.429Z,91.77
2023-01-26T18:54:41.457Z,99.67
2023-01-26T18:57:10.824Z,108.83
2023-01-26T18:59:49.994Z,188.23
2023-01-26T19:02:21.995Z,109.33
2023-01-26T19:04:56.611Z,103.00
2023-01-26T19:07:28.908Z,91.90
2023-01-26T19:09:59.236Z,109.37
2023-01-26T19:12:29.827Z,105.30
2023-01-26T19:15:03.889Z,101.57
2023-01-26T19:17:37.152Z,100.40
2023-01-26T19:20:09.064Z,112.20
2023-01-26T19:22:39.843Z,87.13
2023-01-26T19:25:11.531Z,90.27
2023-01-26T19:27:43.592Z,93.03
2023-01-26T19:30:16.664Z,90.77
2023-01-26T19:33:06.831Z,99.40
2023-01-26T19:35:39.569Z,91.93
2023-01-26T19:38:09.945Z,98.60
2023-01-26T19:40:39.647Z,96.73
2023-01-26T19:43:10.247Z,104.37
2023-01-26T19:45:42.169Z,90.97
2023-01-26T19:48:14.063Z,111.70
2023-01-26T19:50:44.278Z,94.67
2023-01-26T19:53:14.313Z,96.40
2023-01-26T19:55:44.743Z,97.67
2023-01-26T19:58:16.558Z,87.73
2023-01-26T20:00:46.671Z,84.70
2023-01-26T20:03:22.917Z,95.03
2023-01-26T20:05:52.990Z,74.90
2023-01-26T20:08:24.929Z,86.87
2023-01-26T20:10:55.408Z,101.33
2023-01-26T20:13:25.483Z,84.43
2023-01-26T20:16:00.463Z,94.60
2023-01-26T20:18:33.032Z,79.23
2023-01-26T20:21:03.511Z,90.17
2023-01-26T20:23:35.151Z,84.73
2023-01-26T20:26:07.298Z,93.70
2023-01-26T20:28:38.617Z,81.80
2023-01-26T20:31:14.443Z,86.43
2023-01-26T20:33:48.438Z,79.37
2023-01-26T20:36:21.268Z,94.97
2023-01-26T20:38:51.603Z,81.60
2023-01-26T20:41:25.478Z,79.47
2023-01-26T20:44:00.480Z,81.20
2023-01-26T20:46:32.265Z,82.40
2023-01-26T20:49:09.177Z,84.50
2023-01-26T20:51:43.124Z,71.50
2023-01-26T20:54:14.619Z,73.57
2023-01-26T20:56:46.456Z,79.67
2023-01-26T20:59:16.423Z,79.43
2023-01-26T21:01:46.337Z,78.77
2023-01-26T21:04:17.785Z,76.67
2023-01-26T21:06:48.196Z,79.20
2023-01-26T21:09:18.024Z,79.87
2023-01-26T21:11:47.745Z,74.50
2023-01-26T21:14:17.316Z,66.30
2023-01-26T21:16:46.299Z,63.60
2023-01-26T21:19:17.099Z,66.77
2023-01-26T21:21:48.876Z,64.57
2023-01-26T21:24:19.187Z,68.53
2023-01-26T21:26:48.656Z,60.60
2023-01-26T21:29:18.152Z,73.57
2023-01-26T21:31:49.668Z,64.97
2023-01-26T21:34:20.418Z,67.07
2023-01-26T21:36:50.033Z,61.43
2023-01-26T21:39:22.003Z,64.17
2023-01-26T21:42:01.560Z,58.07
2023-01-26T21:44:32.114Z,59.80
2023-01-26T21:47:03.302Z,71.30
2023-01-26T21:49:34.034Z,58.83
2023-01-26T21:52:20.590Z,60.33
2023-01-26T21:54:50.062Z,58.63
2023-01-26T21:57:36.144Z,61.53
2023-01-26T22:00:05.473Z,56.27
2023-01-26T22:02:34.453Z,59.67
2023-01-26T22:05:04.876Z,64.87
2023-01-26T22:07:33.834Z,61.93
2023-01-26T22:10:02.776Z,56.87
2023-01-26T22:12:31.658Z,50.60
2023-01-26T22:15:00.767Z,57.63
2023-01-26T22:17:29.716Z,59.97
2023-01-26T22:19:59.906Z,57.10
2023-01-26T22:22:30.224Z,55.33
2023-01-26T22:25:00.017Z,67.13
2023-01-26T22:27:29.385Z,62.13
2023-01-26T22:29:58.508Z,60.23
2023-01-26T22:32:27.903Z,64.97
2023-01-26T22:34:56.925Z,63.90
2023-01-26T22:37:26.057Z,59.30
2023-01-26T22:39:56.576Z,57.30
2023-01-26T22:42:25.551Z,62.87
2023-01-26T22:44:54.675Z,70.53
2023-01-26T22:47:23.563Z,50.27
2023-01-26T22:49:52.715Z,53.67
2023-01-26T22:52:21.692Z,55.67
2023-01-26T22:54:50.666Z,55.67
2023-01-26T22:57:21.084Z,58.67
2023-01-26T22:59:50.090Z,59.47
2023-01-26T23:02:19.079Z,66.97
2023-01-26T23:04:48.059Z,57.80
2023-01-26T23:07:17.025Z,61.93
2023-01-26T23:09:46.040Z,65.13
2023-01-26T23:12:14.932Z,61.90
2023-01-26T23:14:45.351Z,58.67
2023-01-26T23:17:14.259Z,53.87
2023-01-26T23:19:43.174Z,51.93
2023-01-26T23:22:12.196Z,55.37
2023-01-26T23:25:01.219Z,60.17
2023-01-26T23:27:30.104Z,57.17
2023-01-26T23:30:03.082Z,55.20
2023-01-26T23:32:32.454Z,59.67
2023-01-26T23:35:01.762Z,61.50
2023-01-26T23:37:30.721Z,54.10
2023-01-26T23:39:59.628Z,56.77
2023-01-26T23:42:28.573Z,54.20
2023-01-26T23:44:57.479Z,59.17
2023-01-26T23:47:28.102Z,49.87
2023-01-26T23:49:57.099Z,59.10
2023-01-26T23:52:26.158Z,64.47
2023-01-26T23:54:55.147Z,67.50
2023-01-26T23:57:24.158Z,57.23
2023-01-26T23:59:53.170Z,59.20
